Data for 02/05/2015

Time Sea-Level Adjusted Pressure Absolute Pressure Temperature Relative Humidity Dew Point   
(mb) (inHg) (mb) (inHg) (C) (F) (%) (C) (F)
00:05 1017 30.03 846 24.98 2.5 36.5 67 -3.1 26.4
00:10 1017 30.03 846 24.98 2.6 36.7 67 -2.9 26.8
00:15 1017 30.03 846 24.98 2.6 36.7 66 -3 26.6
00:20 1017 30.03 846 24.98 2.6 36.7 67 -2.9 26.8
00:25 1017 30.03 846 24.98 2.8 37 66 -2.9 26.8
00:30 1017 30.03 846 24.98 2.3 36.2 71 -2.4 27.6
00:35 1017 30.03 846 24.98 1.9 35.4 69 -3.2 26.3
00:40 1017 30.03 846 24.98 2 35.6 70 -3 26.6
00:45 1017 30.03 846 24.98 2.4 36.3 67 -3.2 26.3
00:50 1017 30.03 846 24.98 2.4 36.3 72 -2.2 28.1
00:55 1017 30.03 846 24.98 2.4 36.3 68 -2.9 26.8
01:00 1017 30.03 846 24.98 2.3 36.2 69 -2.7 27.1
01:05 1017 30.03 846 24.98 2.2 36 68 -3.1 26.4
01:10 1017 30.03 846 24.98 2.2 35.9 68 -3.2 26.3
01:15 1017 30.03 846 24.98 2.5 36.4 68 -2.9 26.8
01:20 1017 30.03 846 24.98 2.2 36 70 -2.7 27.1
01:25 1017 30.03 846 24.98 1.9 35.4 70 -2.9 26.7
01:30 1017 30.03 846 24.98 2.1 35.7 69 -2.9 26.7
01:35 1016 30 846 24.98 2.3 36.2 66 -3.3 26
01:40 1017 30.03 846 24.98 2.6 36.7 67 -3 26.7
01:45 1017 30.03 846 24.98 2.6 36.6 68 -2.8 26.9
01:50 1017 30.03 846 24.98 2.3 36.2 70 -2.6 27.2
01:55 1017 30.03 846 24.98 1.8 35.3 71 -2.9 26.7
02:00 1017 30.03 846 24.98 2 35.6 68 -3.3 26.1
02:05 1017 30.03 846 24.98 2.3 36.1 68 -3 26.5
02:10 1017 30.03 846 24.98 2.3 36.2 66 -3.4 26
02:15 1016 30 846 24.98 2.5 36.4 65 -3.3 26
02:20 1016 30 846 24.98 2.7 36.8 64 -3.5 25.8
02:25 1016 30 845 24.95 2.9 37.2 64 -3.2 26.2
02:30 1016 30 845 24.95 2.9 37.2 65 -3.1 26.5
02:35 1016 30 845 24.95 2.8 37 65 -3.2 26.2
02:40 1016 30 845 24.95 2.7 36.9 63 -3.6 25.6
02:45 1016 30 845 24.95 3 37.4 62 -3.6 25.5
02:50 1016 30 845 24.95 3.1 37.6 64 -3 26.6
02:55 1016 30 845 24.95 3.2 37.7 62 -3.4 26
03:00 1016 30 845 24.95 3 37.4 63 -3.3 26
03:05 1016 30 845 24.95 2.7 36.9 65 -3.2 26.2
03:10 1016 30 845 24.95 2.9 37.3 61 -3.8 25.1
03:15 1016 30 845 24.95 3.3 37.9 61 -3.4 25.8
03:20 1016 30 846 24.98 3.4 38.1 61 -3.5 25.6
03:25 1016 30 846 24.98 3.6 38.4 58 -3.9 25
03:30 1016 30 846 24.98 3.7 38.7 56 -4.3 24.2
03:35 1016 30 846 24.98 3.9 39 52 -5.1 22.9
03:40 1017 30.03 846 24.98 4.3 39.8 52 -4.7 23.5
03:45 1016 30 846 24.98 4.4 39.9 52 -4.7 23.5
03:50 1016 30 846 24.98 4.4 39.9 52 -4.7 23.5
03:55 1016 30 846 24.98 4.4 39.9 54 -4.2 24.5
04:00 1017 30.03 846 24.98 4.3 39.7 53 -4.4 24.1
04:05 1017 30.03 846 24.98 4.3 39.8 50 -5.1 22.8
04:10 1016 30 846 24.98 4.4 39.9 59 -2.9 26.8
04:15 1016 30 846 24.98 3.1 37.6 60 -3.9 24.9
04:20 1016 30 846 24.98 3.1 37.6 55 -5 22.9
04:25 1016 30 846 24.98 3.8 38.8 52 -5.2 22.7
04:30 1016 30 845 24.95 4.5 40 52 -4.7 23.6
04:35 1016 30 846 24.98 4.5 40.1 52 -4.5 24
04:40 1016 30 845 24.95 4.4 40 52 -4.5 23.9
04:45 1016 30 845 24.95 4.3 39.8 52 -4.6 23.7
04:50 1016 30 845 24.95 4.8 40.7 48 -5.4 22.3
04:55 1016 30 845 24.95 5.4 41.6 48 -4.7 23.5
05:00 1016 30 845 24.95 5.2 41.4 50 -4.3 24.3
05:05 1016 30 845 24.95 5.1 41.3 50 -4.3 24.2
05:10 1016 30 845 24.95 5 41 53 -3.7 25.3
05:15 1016 30 845 24.95 4.8 40.6 53 -4 24.8
05:20 1016 30 845 24.95 4.9 40.8 51 -4.5 24
05:25 1016 30 845 24.95 5 41 51 -4.3 24.3
05:30 1015 29.97 845 24.95 5.1 41.2 47 -5.2 22.7
05:35 1015 29.97 844 24.92 5.3 41.6 49 -4.6 23.8
05:40 1015 29.97 844 24.92 5 41 54 -3.6 25.5
05:45 1015 29.97 844 24.92 4.3 39.7 54 -4.2 24.4
05:50 1015 29.97 844 24.92 4.5 40.1 50 -5 23.1
05:55 1015 29.97 845 24.95 5 41.1 51 -4.4 24.1
06:00 1015 29.97 845 24.95 5 41 51 -4.4 24
06:05 1015 29.97 845 24.95 5.2 41.3 48 -4.8 23.3
06:10 1015 29.97 844 24.92 5.5 41.9 47 -4.8 23.3
06:15 1015 29.97 844 24.92 5.8 42.5 46 -5 23.1
06:20 1015 29.97 844 24.92 5.9 42.7 47 -4.4 24
06:25 1015 29.97 844 24.92 5.8 42.4 48 -4.4 24.1
06:30 1015 29.97 844 24.92 5.6 42.1 48 -4.6 23.6
06:35 1015 29.97 844 24.92 5.7 42.3 48 -4.3 24.2
06:40 1015 29.97 844 24.92 5.5 42 51 -3.8 25.2
06:45 1015 29.97 844 24.92 5.1 41.1 53 -3.8 25.1
06:50 1015 29.97 844 24.92 4.7 40.4 54 -3.9 24.9
06:55 1015 29.97 844 24.92 4.4 40 56 -3.6 25.5
07:00 1015 29.97 844 24.92 4 39.3 56 -3.9 25.1
07:05 1015 29.97 844 24.92 4 39.2 57 -3.8 25.1
07:10 1015 29.97 844 24.92 4 39.2 56 -4 24.8
07:15 1015 29.97 844 24.92 4 39.3 52 -4.9 23.2
07:20 1015 29.97 844 24.92 4.5 40.2 53 -4.3 24.2
07:25 1015 29.97 844 24.92 4.4 40 53 -4.3 24.2
07:30 1014 29.94 844 24.92 4.6 40.2 55 -3.7 25.4
07:35 1014 29.94 843 24.89 4.2 39.6 53 -4.5 23.9
07:40 1014 29.94 843 24.89 4.4 40 55 -3.8 25.2
07:45 1014 29.94 843 24.89 4 39.3 58 -3.5 25.6
07:50 1014 29.94 843 24.89 3.4 38.1 62 -3.2 26.2
07:55 1014 29.94 844 24.92 3.1 37.7 61 -3.6 25.6
08:00 1014 29.94 844 24.92 3.5 38.2 57 -4.3 24.3
08:05 1014 29.94 844 24.92 4 39.2 54 -4.5 23.9
08:10 1014 29.94 844 24.92 4.4 39.9 50 -5.1 22.8
08:15 1014 29.94 844 24.92 5.2 41.4 50 -4.5 23.9
08:20 1014 29.94 844 24.92 5.4 41.7 49 -4.5 23.9
08:25 1014 29.94 844 24.92 5.2 41.4 47 -5.1 22.8
08:30 1014 29.94 844 24.92 5.8 42.5 44 -5.4 22.3
08:35 1014 29.94 843 24.89 6.4 43.4 44 -5 23
08:40 1014 29.94 843 24.89 6.7 44.1 42 -5.2 22.7
08:45 1014 29.94 844 24.92 6.7 44.1 44 -4.8 23.4
08:50 1014 29.94 844 24.92 6.6 43.8 44 -5 23.1
08:55 1014 29.94 843 24.89 6.6 44 44 -4.8 23.3
09:00 1014 29.94 843 24.89 6.3 43.3 48 -4 24.7
09:05 1014 29.94 843 24.89 5.3 41.5 52 -3.7 25.3
09:10 1014 29.94 843 24.89 4.6 40.2 55 -3.7 25.3
09:15 1014 29.94 843 24.89 4.6 40.3 50 -4.9 23.1
09:20 1014 29.94 843 24.89 5.2 41.4 50 -4.5 23.9
09:25 1014 29.94 843 24.89 5.4 41.7 49 -4.5 24
09:30 1014 29.94 843 24.89 5.1 41.1 53 -3.6 25.5
09:35 1014 29.94 843 24.89 4.6 40.3 55 -3.6 25.6
09:40 1014 29.94 843 24.89 4.5 40.1 55 -3.8 25.1
09:45 1014 29.94 843 24.89 4.7 40.5 52 -4.2 24.4
09:50 1014 29.94 843 24.89 5.4 41.6 51 -3.9 24.9
09:55 1014 29.94 843 24.89 5.1 41.3 52 -3.9 24.9
10:00 1014 29.94 843 24.89 5.3 41.6 52 -3.7 25.3
10:05 1014 29.94 843 24.89 5.3 41.5 51 -4.1 24.5
10:10 1014 29.94 843 24.89 5.5 41.9 51 -3.8 25.2
10:15 1014 29.94 843 24.89 5.5 42 47 -4.8 23.4
10:20 1014 29.94 843 24.89 5.9 42.6 50 -3.7 25.3
10:25 1014 29.94 843 24.89 5.6 42 46 -5.3 22.5
10:30 1014 29.94 843 24.89 6.4 43.5 43 -5.3 22.4
10:35 1014 29.94 843 24.89 7.1 44.8 41 -5.3 22.5
10:40 1014 29.94 843 24.89 7.5 45.4 39 -5.5 22
10:45 1014 29.94 843 24.89 7.7 45.9 39 -5.4 22.4
10:50 1014 29.94 843 24.89 7.9 46.1 40 -4.9 23.2
10:55 1014 29.94 843 24.89 7.6 45.7 45 -3.6 25.5
11:00 1014 29.94 843 24.89 7.2 44.9 37 -6.5 20.2
11:05 1014 29.94 843 24.89 8.2 46.7 36 -6.2 20.9
11:10 1014 29.94 843 24.89 8.7 47.6 34 -6.3 20.7
11:15 1014 29.94 843 24.89 8.9 48 35 -5.6 21.9
11:20 1014 29.94 843 24.89 9 48.1 34 -6.2 20.8
11:25 1014 29.94 843 24.89 9.2 48.5 34 -6 21.2
11:30 1014 29.94 843 24.89 9.2 48.6 32 -6.6 20
11:35 1014 29.94 843 24.89 9.7 49.4 32 -6.2 20.8
11:40 1013 29.91 843 24.89 9.8 49.6 32 -6.3 20.7
11:45 1013 29.91 842 24.86 10.1 50.1 31 -6.3 20.7
11:50 1013 29.91 842 24.86 10.3 50.5 31 -6.3 20.7
11:55 1013 29.91 842 24.86 10.4 50.6 31 -5.9 21.3
12:00 1013 29.91 842 24.86 10.2 50.4 33 -5.5 22.1
12:05 1013 29.91 842 24.86 10 50 34 -5.1 22.8
12:10 1013 29.91 842 24.86 9.9 49.8 34 -5.1 22.8
12:15 1013 29.91 842 24.86 9.8 49.6 33 -5.5 22
12:20 1013 29.91 842 24.86 9.9 49.7 34 -5.3 22.4
12:25 1013 29.91 842 24.86 10 49.9 33 -5.4 22.3
12:30 1013 29.91 842 24.86 9.9 49.8 34 -5.3 22.5
12:35 1013 29.91 842 24.86 9.9 49.8 34 -5.3 22.4
12:40 1013 29.91 842 24.86 10 49.9 33 -5.5 22.1
12:45 1013 29.91 842 24.86 10 50 34 -5.1 22.8
12:50 1013 29.91 842 24.86 9.9 49.8 34 -5.3 22.4
12:55 1013 29.91 842 24.86 10 50 34 -5.2 22.6
13:00 1013 29.91 842 24.86 10 50 35 -4.6 23.8
13:05 1013 29.91 842 24.86 10 50 34 -5 23
13:10 1013 29.91 842 24.86 10.2 50.3 34 -4.9 23.2
13:15 1013 29.91 842 24.86 10.1 50.2 32 -5.6 21.9
13:20 1012 29.88 842 24.86 10.3 50.6 32 -5.5 22.2
13:25 1012 29.88 842 24.86 10.6 51.1 32 -5.5 22
13:30 1012 29.88 841 24.83 10.9 51.7 30 -6 21.3
13:35 1012 29.88 841 24.83 11.1 52 29 -6.4 20.4
13:40 1012 29.88 841 24.83 11.2 52.2 31 -5.2 22.7
13:45 1012 29.88 841 24.83 10.9 51.6 31 -5.6 22
13:50 1012 29.88 841 24.83 11.2 52.1 30 -5.7 21.7
13:55 1012 29.88 841 24.83 11.5 52.6 29 -6 21.2
14:00 1012 29.88 841 24.83 11.6 52.8 30 -5.4 22.3
14:05 1012 29.88 841 24.83 11.6 53 29 -5.7 21.8
14:10 1012 29.88 841 24.83 11.6 52.8 28 -6.3 20.6
14:15 1012 29.88 841 24.83 12 53.5 27 -6.6 20.2
14:20 1012 29.88 841 24.83 12.1 53.8 28 -5.8 21.5
14:25 1012 29.88 841 24.83 11.8 53.2 29 -5.8 21.6
14:30 1012 29.88 841 24.83 11.7 53 30 -5.5 22.1
14:35 1012 29.88 841 24.83 11.6 52.9 29 -5.6 21.9
14:40 1012 29.88 841 24.83 11.7 53 30 -5.4 22.3
14:45 1012 29.88 841 24.83 11.7 53.1 29 -5.7 21.7
14:50 1012 29.88 841 24.83 12 53.5 28 -5.9 21.3
14:55 1012 29.88 841 24.83 12.2 53.9 28 -5.6 22
15:00 1012 29.88 841 24.83 12 53.6 30 -5.1 22.8
15:05 1012 29.88 841 24.83 11.8 53.2 31 -4.8 23.3
15:10 1012 29.88 841 24.83 11.7 53.1 30 -5.3 22.4
15:15 1012 29.88 841 24.83 11.5 52.6 31 -5.2 22.6
15:20 1012 29.88 841 24.83 11.5 52.8 27 -7 19.3
15:25 1012 29.88 841 24.83 12.5 54.5 26 -6.4 20.4
15:30 1012 29.88 841 24.83 12.7 54.8 25 -6.6 20.2
15:35 1012 29.88 841 24.83 12.7 54.9 26 -6.4 20.5
15:40 1012 29.88 841 24.83 12.7 54.8 25 -6.9 19.6
15:45 1012 29.88 841 24.83 12.8 55 25 -6.7 19.9
15:50 1012 29.88 841 24.83 12.8 55.1 25 -6.5 20.3
15:55 1012 29.88 841 24.83 12.7 54.8 26 -6.4 20.5
16:00 1012 29.88 841 24.83 12.6 54.6 25 -6.6 20
16:05 1012 29.88 841 24.83 12.7 54.8 25 -6.9 19.6
16:10 1012 29.88 841 24.83 12.9 55.2 24 -7 19.4
16:15 1012 29.88 841 24.83 13.1 55.6 22 -7.8 18
16:20 1012 29.88 841 24.83 13.2 55.7 23 -7.3 18.9
16:25 1012 29.88 841 24.83 13.1 55.6 23 -7.8 18
16:30 1012 29.88 841 24.83 13.1 55.5 23 -7.6 18.2
16:35 1012 29.88 841 24.83 13 55.4 22 -7.9 17.7
16:40 1012 29.88 841 24.83 13 55.4 23 -7.6 18.3
16:45 1012 29.88 841 24.83 13 55.4 23 -7.8 17.9
16:50 1012 29.88 841 24.83 13.1 55.6 22 -8.1 17.5
16:55 1012 29.88 841 24.83 13.2 55.7 22 -8.1 17.4
17:00 1012 29.88 842 24.86 13.2 55.7 23 -7.7 18.2
17:05 1012 29.88 842 24.86 13.1 55.5 24 -7.3 18.9
17:10 1012 29.88 842 24.86 13 55.3 24 -7.2 19.1
17:15 1012 29.88 842 24.86 12.9 55.3 23 -7.8 18
17:20 1012 29.88 842 24.86 12.9 55.2 23 -7.9 17.7
17:25 1012 29.88 842 24.86 12.8 55 24 -7.4 18.7
17:30 1013 29.91 842 24.86 12.5 54.6 24 -7.5 18.5
17:35 1013 29.91 842 24.86 12.6 54.7 24 -7.2 19
17:40 1013 29.91 842 24.86 12.4 54.3 26 -6.4 20.5
17:45 1013 29.91 842 24.86 12 53.7 25 -7.3 18.9
17:50 1013 29.91 842 24.86 12 53.6 27 -6.6 20.1
17:55 1013 29.91 842 24.86 12 53.6 25 -7.4 18.7
18:00 1013 29.91 842 24.86 12.1 53.8 24 -7.8 18
18:05 1013 29.91 842 24.86 12.3 54.1 26 -6.7 19.9
18:10 1013 29.91 842 24.86 12 53.5 26 -7 19.4
18:15 1013 29.91 842 24.86 12 53.5 25 -7.3 18.8
18:20 1013 29.91 842 24.86 11.9 53.4 26 -6.9 19.6
18:25 1013 29.91 842 24.86 11.7 53.1 26 -7.1 19.3
18:30 1013 29.91 842 24.86 11.7 53 25 -7.5 18.4
18:35 1013 29.91 842 24.86 11.7 53 26 -7.3 18.9
18:40 1013 29.91 842 24.86 11.7 53 26 -7.3 18.8
18:45 1013 29.91 842 24.86 11.8 53.2 25 -7.7 18.1
18:50 1013 29.91 842 24.86 11.7 53 24 -8.1 17.4
18:55 1013 29.91 842 24.86 11.9 53.5 25 -7.7 18.2
19:00 1013 29.91 842 24.86 11.6 52.9 27 -6.9 19.5
19:05 1013 29.91 842 24.86 11.1 52 28 -6.9 19.6
19:10 1013 29.91 842 24.86 11.3 52.3 24 -8.3 17
19:15 1013 29.91 842 24.86 11.7 53.1 26 -7.2 19.1
19:20 1013 29.91 842 24.86 11.4 52.5 26 -7.6 18.4
19:25 1013 29.91 842 24.86 11.3 52.3 27 -7 19.4
19:30 1013 29.91 842 24.86 11 51.8 27 -7.4 18.7
19:35 1013 29.91 843 24.89 11 51.9 27 -7 19.4
19:40 1013 29.91 843 24.89 11 51.7 27 -7.3 18.9
19:45 1013 29.91 843 24.89 11.1 51.9 27 -7.3 18.9
19:50 1014 29.94 843 24.89 11 51.8 28 -6.7 19.9
19:55 1014 29.94 843 24.89 10.7 51.3 29 -6.6 20.2
20:00 1014 29.94 843 24.89 10.4 50.7 30 -6.5 20.3
20:05 1014 29.94 843 24.89 10.2 50.4 30 -6.7 20
20:10 1014 29.94 843 24.89 10.3 50.5 28 -7.3 18.8
20:15 1014 29.94 843 24.89 10.6 51 27 -7.4 18.6
20:20 1014 29.94 843 24.89 10.8 51.4 27 -7.3 18.9
20:25 1014 29.94 843 24.89 10.6 51.1 28 -7 19.4
20:30 1014 29.94 843 24.89 10.4 50.6 29 -7 19.5
20:35 1014 29.94 843 24.89 10.2 50.4 29 -7 19.3
20:40 1014 29.94 843 24.89 10 50 30 -6.7 20
20:45 1014 29.94 843 24.89 9.7 49.4 29 -7.7 18.1
20:50 1014 29.94 843 24.89 10.1 50.2 28 -7.4 18.7
20:55 1014 29.94 843 24.89 10.2 50.4 28 -7.4 18.7
21:00 1014 29.94 843 24.89 10.1 50.2 29 -7 19.4
21:05 1014 29.94 844 24.92 9.7 49.4 29 -7.5 18.4
21:10 1014 29.94 844 24.92 9.9 49.7 30 -6.8 19.7
21:15 1014 29.94 844 24.92 9.3 48.8 31 -6.8 19.7
21:20 1014 29.94 844 24.92 9.1 48.4 32 -6.9 19.6
21:25 1014 29.94 844 24.92 9.6 49.4 28 -8 17.7
21:30 1014 29.94 844 24.92 10.3 50.6 27 -7.6 18.3
21:35 1014 29.94 844 24.92 10.7 51.2 26 -8 17.7
21:40 1014 29.94 844 24.92 10.9 51.6 27 -7.2 19
21:45 1014 29.94 843 24.89 11 51.8 27 -7.5 18.6
21:50 1014 29.94 843 24.89 11 51.8 28 -6.9 19.7
21:55 1014 29.94 843 24.89 10 50 33 -5.5 22.2
22:00 1014 29.94 843 24.89 8.8 47.9 36 -5.4 22.2
22:05 1014 29.94 843 24.89 8.4 47.1 37 -5.6 21.9
22:10 1014 29.94 843 24.89 8.2 46.8 38 -5.2 22.7
22:15 1014 29.94 843 24.89 7.7 45.8 38 -5.7 21.7
22:20 1014 29.94 843 24.89 7.9 46.2 36 -6.4 20.5
22:25 1014 29.94 843 24.89 8.1 46.5 36 -6.3 20.7
22:30 1014 29.94 843 24.89 8.2 46.7 35 -6.4 20.5
22:35 1014 29.94 843 24.89 8.7 47.6 34 -6.2 20.9
22:40 1014 29.94 843 24.89 8.8 47.9 35 -5.6 21.9
22:45 1014 29.94 843 24.89 8.7 47.6 33 -6.6 20.2
22:50 1014 29.94 843 24.89 9.2 48.5 33 -6.2 20.9
22:55 1014 29.94 843 24.89 9.5 49.1 32 -6.3 20.7
23:00 1014 29.94 843 24.89 9.7 49.5 33 -5.7 21.7
23:05 1014 29.94 843 24.89 9.2 48.6 36 -5.2 22.6
23:10 1014 29.94 843 24.89 9.2 48.6 32 -6.5 20.2
23:15 1014 29.94 843 24.89 10.5 50.8 30 -6.3 20.6
23:20 1014 29.94 843 24.89 10.7 51.2 30 -6.2 20.8
23:25 1014 29.94 843 24.89 10.7 51.3 30 -6.1 21.1
23:30 1014 29.94 843 24.89 10.4 50.7 31 -6 21.1
23:35 1014 29.94 843 24.89 10.6 51 29 -6.6 20.1
23:40 1014 29.94 843 24.89 10.7 51.3 30 -6.2 20.8
23:45 1014 29.94 843 24.89 10.5 50.8 30 -6.2 20.9
23:50 1014 29.94 843 24.89 10.4 50.7 30 -6.4 20.6
23:55 1014 29.94 843 24.89 10.7 51.2 29 -6.7 20
24:00 1014 29.94 843 24.89 10.6 51.1 30 -6.1 21